createdAt,value
2022-12-11T00:00:24.998Z,43.80
2022-12-11T00:01:25.003Z,43.60
2022-12-11T00:02:24.995Z,37.20
2022-12-11T00:03:25.047Z,39.50
2022-12-11T00:04:24.942Z,41.00
2022-12-11T00:05:24.973Z,41.60
2022-12-11T00:06:24.913Z,47.40
2022-12-11T00:07:24.935Z,41.50
2022-12-11T00:08:25.001Z,41.20
2022-12-11T00:09:24.900Z,39.00
2022-12-11T00:10:24.858Z,43.30
2022-12-11T00:11:24.873Z,40.60
2022-12-11T00:12:24.864Z,42.50
2022-12-11T00:13:24.907Z,40.70
2022-12-11T00:14:24.847Z,44.30
2022-12-11T00:15:24.825Z,45.70
2022-12-11T00:16:27.147Z,42.20
2022-12-11T00:17:24.808Z,46.20
2022-12-11T00:18:24.771Z,43.70
2022-12-11T00:19:24.812Z,47.40
2022-12-11T00:20:24.760Z,42.10
2022-12-11T00:21:24.786Z,47.70
2022-12-11T00:22:24.727Z,43.80
2022-12-11T00:23:24.721Z,48.10
2022-12-11T00:24:24.691Z,46.50
2022-12-11T00:25:24.715Z,42.30
2022-12-11T00:26:24.686Z,46.90
2022-12-11T00:27:24.673Z,44.90
2022-12-11T00:28:24.639Z,44.50
2022-12-11T00:29:24.663Z,45.70
2022-12-11T00:30:24.666Z,44.60
2022-12-11T00:31:24.696Z,47.90
2022-12-11T00:32:24.570Z,47.20
2022-12-11T00:33:24.589Z,48.80
2022-12-11T00:34:24.579Z,45.70
2022-12-11T00:35:24.566Z,47.70
2022-12-11T00:36:24.556Z,47.20
2022-12-11T00:37:24.599Z,49.00
2022-12-11T00:38:24.495Z,45.70
2022-12-11T00:39:24.549Z,43.90
2022-12-11T00:40:24.506Z,49.30
2022-12-11T00:41:24.491Z,44.20
2022-12-11T00:42:24.470Z,45.40
2022-12-11T00:43:24.496Z,43.90
2022-12-11T00:44:24.430Z,47.10
2022-12-11T00:45:24.453Z,45.40
2022-12-11T00:46:24.475Z,46.30
2022-12-11T00:47:24.422Z,51.50
2022-12-11T00:48:24.366Z,49.50
2022-12-11T00:49:24.406Z,47.60
2022-12-11T00:50:24.345Z,48.50
2022-12-11T00:51:24.350Z,49.90
2022-12-11T00:52:24.336Z,49.10
2022-12-11T00:53:24.347Z,48.90
2022-12-11T00:54:24.304Z,49.40
2022-12-11T00:55:24.313Z,51.00
2022-12-11T00:56:24.268Z,47.70
2022-12-11T00:57:24.272Z,46.70
2022-12-11T00:58:24.284Z,45.30
2022-12-11T00:59:24.278Z,47.60
2022-12-11T01:00:24.224Z,48.30
2022-12-11T01:01:24.319Z,46.90
2022-12-11T01:02:24.257Z,46.70
2022-12-11T01:03:24.199Z,48.60
2022-12-11T01:04:24.170Z,46.70
2022-12-11T01:05:24.171Z,46.20
2022-12-11T01:06:24.181Z,48.20
2022-12-11T01:07:24.153Z,47.70
2022-12-11T01:08:24.226Z,49.60
2022-12-11T01:09:24.150Z,45.70
2022-12-11T01:10:24.161Z,48.80
2022-12-11T01:11:24.096Z,50.10
2022-12-11T01:12:24.058Z,46.10
2022-12-11T01:13:24.069Z,50.10
2022-12-11T01:14:24.055Z,49.80
2022-12-11T01:15:24.039Z,47.70
2022-12-11T01:16:24.113Z,47.50
2022-12-11T01:17:24.151Z,49.10
2022-12-11T01:18:23.973Z,47.60
2022-12-11T01:19:24.019Z,51.70
2022-12-11T01:20:23.963Z,50.40
2022-12-11T01:21:23.973Z,53.00
2022-12-11T01:22:23.951Z,49.50
2022-12-11T01:23:23.940Z,49.50
2022-12-11T01:24:23.903Z,50.50
2022-12-11T01:25:23.940Z,53.60
2022-12-11T01:26:23.891Z,47.60
2022-12-11T01:27:23.889Z,53.70
2022-12-11T01:28:23.840Z,51.00
2022-12-11T01:29:23.872Z,50.30
2022-12-11T01:30:23.822Z,48.80
2022-12-11T01:31:23.856Z,49.50
2022-12-11T01:32:23.795Z,54.70
2022-12-11T01:33:23.805Z,53.10
2022-12-11T01:34:23.764Z,52.10
2022-12-11T01:35:23.789Z,52.80
2022-12-11T01:36:23.779Z,54.40
2022-12-11T01:37:23.756Z,49.90
2022-12-11T01:38:23.731Z,52.10
2022-12-11T01:39:23.765Z,52.60
2022-12-11T01:40:23.706Z,52.50
2022-12-11T01:41:23.720Z,55.10
2022-12-11T01:42:23.723Z,51.60
2022-12-11T01:43:23.733Z,54.50
2022-12-11T01:44:23.653Z,52.90
2022-12-11T01:45:26.718Z,55.40
2022-12-11T01:46:23.716Z,54.10
2022-12-11T01:47:23.653Z,55.90
2022-12-11T01:48:23.589Z,59.90
2022-12-11T01:49:23.603Z,56.50
2022-12-11T01:50:23.559Z,58.60
2022-12-11T01:51:23.582Z,57.70
2022-12-11T01:52:23.547Z,62.50
2022-12-11T01:53:23.599Z,62.80
2022-12-11T01:54:23.543Z,60.90
2022-12-11T01:55:23.500Z,63.10
2022-12-11T01:56:23.527Z,56.90
2022-12-11T01:57:23.502Z,61.00
2022-12-11T01:58:23.481Z,58.80
2022-12-11T01:59:23.448Z,61.40
2022-12-11T02:00:23.598Z,64.50
2022-12-11T02:01:23.463Z,62.70
2022-12-11T02:02:23.484Z,62.00
2022-12-11T02:03:23.424Z,62.20
2022-12-11T02:04:23.413Z,66.10
2022-12-11T02:05:23.372Z,63.80
2022-12-11T02:06:23.401Z,68.60
2022-12-11T02:07:23.353Z,65.20
2022-12-11T02:08:23.402Z,68.10
2022-12-11T02:09:23.340Z,71.30
2022-12-11T02:10:23.326Z,71.90
2022-12-11T02:11:23.337Z,66.60
2022-12-11T02:12:23.305Z,65.70
2022-12-11T02:13:23.275Z,69.00
2022-12-11T02:14:23.283Z,68.90
2022-12-11T02:15:23.247Z,73.40
2022-12-11T02:16:23.368Z,65.00
2022-12-11T02:17:23.214Z,69.30
2022-12-11T02:18:23.227Z,73.20
2022-12-11T02:19:23.191Z,71.90
2022-12-11T02:20:23.262Z,69.00
2022-12-11T02:21:23.171Z,73.30
2022-12-11T02:22:23.197Z,69.50
2022-12-11T02:23:23.133Z,67.80
2022-12-11T02:24:23.166Z,66.80
2022-12-11T02:25:23.115Z,66.00
2022-12-11T02:26:23.147Z,66.50
2022-12-11T02:27:23.088Z,66.90
2022-12-11T02:28:23.108Z,68.10
2022-12-11T02:29:23.070Z,69.80
2022-12-11T02:30:23.089Z,69.70
2022-12-11T02:31:23.082Z,67.30
2022-12-11T02:32:23.075Z,69.50
2022-12-11T02:33:23.008Z,68.90
2022-12-11T02:34:23.031Z,72.50
2022-12-11T02:35:23.015Z,71.20
2022-12-11T02:36:22.993Z,73.00
2022-12-11T02:37:22.982Z,68.90
2022-12-11T02:38:22.962Z,72.30
2022-12-11T02:39:22.937Z,66.60
2022-12-11T02:40:22.950Z,68.30
2022-12-11T02:41:22.936Z,66.10
2022-12-11T02:42:22.930Z,69.60
2022-12-11T02:43:22.908Z,68.50
2022-12-11T02:44:22.890Z,63.70
2022-12-11T02:45:22.857Z,64.10
2022-12-11T02:46:22.881Z,68.80
2022-12-11T02:47:22.833Z,65.00
2022-12-11T02:48:22.849Z,65.70
2022-12-11T02:49:22.824Z,65.60
2022-12-11T02:50:22.810Z,64.10
2022-12-11T02:51:22.803Z,53.60
2022-12-11T02:52:22.801Z,65.30
2022-12-11T02:53:22.765Z,63.60
2022-12-11T02:54:22.791Z,63.10
2022-12-11T02:55:22.731Z,65.10
2022-12-11T02:56:22.759Z,66.50
2022-12-11T02:57:22.702Z,62.40
2022-12-11T02:58:22.716Z,65.40
2022-12-11T02:59:22.679Z,66.00
2022-12-11T03:00:22.733Z,68.10
2022-12-11T03:01:22.703Z,61.70
2022-12-11T03:02:22.701Z,70.80
2022-12-11T03:03:22.623Z,67.30
2022-12-11T03:04:22.636Z,69.50
2022-12-11T03:05:22.598Z,64.50
2022-12-11T03:06:22.637Z,67.50
2022-12-11T03:07:22.581Z,65.20
2022-12-11T03:08:22.640Z,64.50
2022-12-11T03:09:22.542Z,61.10
2022-12-11T03:10:22.558Z,63.90
2022-12-11T03:11:22.556Z,59.30
2022-12-11T03:12:22.563Z,60.70
2022-12-11T03:13:22.488Z,61.20
2022-12-11T03:14:22.516Z,61.50
2022-12-11T03:15:22.473Z,65.50
2022-12-11T03:16:22.552Z,61.90
2022-12-11T03:17:22.456Z,65.00
2022-12-11T03:18:22.470Z,66.20
2022-12-11T03:19:22.439Z,66.90
2022-12-11T03:20:22.422Z,67.00
2022-12-11T03:21:22.433Z,63.50
2022-12-11T03:22:22.445Z,66.80
2022-12-11T03:23:22.368Z,67.60
2022-12-11T03:24:22.373Z,69.60
2022-12-11T03:25:22.368Z,64.60
2022-12-11T03:26:22.352Z,65.60
2022-12-11T03:27:22.321Z,62.70
2022-12-11T03:28:22.317Z,71.20
2022-12-11T03:29:22.274Z,65.50
2022-12-11T03:30:22.323Z,69.50
2022-12-11T03:31:22.264Z,68.50
2022-12-11T03:32:22.292Z,66.00
2022-12-11T03:33:22.277Z,67.70
2022-12-11T03:34:22.242Z,68.10
2022-12-11T03:35:22.227Z,67.40
2022-12-11T03:36:22.233Z,68.10
2022-12-11T03:37:22.222Z,65.40
2022-12-11T03:38:22.199Z,61.00
2022-12-11T03:39:22.169Z,70.60
2022-12-11T03:40:22.208Z,63.70
2022-12-11T03:41:22.136Z,68.40
2022-12-11T03:42:22.156Z,65.90
2022-12-11T03:43:22.130Z,70.20
2022-12-11T03:44:22.132Z,67.70
2022-12-11T03:45:22.143Z,70.70
2022-12-11T03:46:22.175Z,61.90
2022-12-11T03:47:22.053Z,66.60
2022-12-11T03:48:22.112Z,63.30
2022-12-11T03:49:22.024Z,59.50
2022-12-11T03:50:22.042Z,59.70
2022-12-11T03:51:22.023Z,59.10
2022-12-11T03:52:22.023Z,61.50
2022-12-11T03:53:21.993Z,63.30
2022-12-11T03:54:22.013Z,65.70
2022-12-11T03:55:21.961Z,63.20
2022-12-11T03:56:22.013Z,62.50
2022-12-11T03:57:21.942Z,62.10
2022-12-11T03:58:21.940Z,60.60
2022-12-11T03:59:21.902Z,63.80
2022-12-11T04:00:21.943Z,63.00
2022-12-11T04:01:21.952Z,66.40
2022-12-11T04:02:21.888Z,61.60
2022-12-11T04:03:21.886Z,65.90
2022-12-11T04:04:21.924Z,65.90
2022-12-11T04:05:21.850Z,61.40
2022-12-11T04:06:21.845Z,60.90
2022-12-11T04:07:21.799Z,64.40
2022-12-11T04:08:21.882Z,60.70
2022-12-11T04:09:21.774Z,65.00
2022-12-11T04:10:21.788Z,67.40
2022-12-11T04:11:21.782Z,63.40
2022-12-11T04:12:21.762Z,63.40
2022-12-11T04:13:21.742Z,64.60
2022-12-11T04:14:21.773Z,65.10
2022-12-11T04:15:21.692Z,65.70
2022-12-11T04:16:21.727Z,66.30
2022-12-11T04:17:21.672Z,64.00
2022-12-11T04:18:21.717Z,65.50
2022-12-11T04:19:21.664Z,68.10
2022-12-11T04:20:21.661Z,67.80
2022-12-11T04:21:21.622Z,64.70
2022-12-11T04:22:21.656Z,63.60
2022-12-11T04:23:21.615Z,61.20
2022-12-11T04:24:21.606Z,64.30
2022-12-11T04:25:21.583Z,65.50
2022-12-11T04:26:21.577Z,63.10
2022-12-11T04:27:21.571Z,60.40
2022-12-11T04:28:21.566Z,67.30
2022-12-11T04:29:21.523Z,67.10
2022-12-11T04:30:21.526Z,65.30
2022-12-11T04:31:21.610Z,70.70
2022-12-11T04:32:21.514Z,66.40
2022-12-11T04:33:21.492Z,70.50
2022-12-11T04:34:21.497Z,63.50
2022-12-11T04:35:21.447Z,67.90
2022-12-11T04:36:21.448Z,68.00
2022-12-11T04:37:21.424Z,64.10
2022-12-11T04:38:21.420Z,64.90
2022-12-11T04:39:21.396Z,65.00
2022-12-11T04:40:21.399Z,64.60
2022-12-11T04:41:21.380Z,64.20
2022-12-11T04:42:21.357Z,66.30
2022-12-11T04:43:21.336Z,66.00
2022-12-11T04:44:21.363Z,64.30
2022-12-11T04:45:21.303Z,65.20
2022-12-11T04:46:21.441Z,61.80
2022-12-11T04:47:21.282Z,63.00
2022-12-11T04:48:21.278Z,63.90
2022-12-11T04:49:21.278Z,62.70
2022-12-11T04:50:21.240Z,64.60
2022-12-11T04:51:21.284Z,64.80
2022-12-11T04:52:21.217Z,60.90
2022-12-11T04:53:21.227Z,60.20
2022-12-11T04:54:21.210Z,60.70
2022-12-11T04:55:21.212Z,62.90
2022-12-11T04:56:21.180Z,62.40
2022-12-11T04:57:21.187Z,65.60
2022-12-11T04:58:21.134Z,62.80
2022-12-11T04:59:21.150Z,58.80
2022-12-11T05:00:21.117Z,61.00
2022-12-11T05:01:21.173Z,61.50
2022-12-11T05:02:21.142Z,58.30
2022-12-11T05:03:21.101Z,63.70
2022-12-11T05:04:21.091Z,58.60
2022-12-11T05:05:21.102Z,61.60
2022-12-11T05:06:21.049Z,54.60
2022-12-11T05:07:21.043Z,60.60
2022-12-11T05:08:21.078Z,53.10
2022-12-11T05:09:21.041Z,59.90
2022-12-11T05:10:21.015Z,60.90
2022-12-11T05:11:21.016Z,55.10
2022-12-11T05:12:20.959Z,56.40
2022-12-11T05:13:20.980Z,63.50
2022-12-11T05:14:20.958Z,56.00
2022-12-11T05:15:20.940Z,57.60
2022-12-11T05:16:20.916Z,59.20
2022-12-11T05:17:20.917Z,57.20
2022-12-11T05:18:20.909Z,54.50
2022-12-11T05:19:20.896Z,55.60
2022-12-11T05:20:20.856Z,54.20
2022-12-11T05:21:20.870Z,60.00
2022-12-11T05:22:20.823Z,55.10
2022-12-11T05:23:20.883Z,58.70
2022-12-11T05:24:20.818Z,54.30
2022-12-11T05:25:20.820Z,57.40
2022-12-11T05:26:20.779Z,56.30
2022-12-11T05:27:20.825Z,55.80
2022-12-11T05:28:20.791Z,50.30
2022-12-11T05:29:20.771Z,53.60
2022-12-11T05:30:20.726Z,55.90
2022-12-11T05:31:20.768Z,54.50
2022-12-11T05:32:20.730Z,51.00
2022-12-11T05:33:20.709Z,55.20
2022-12-11T05:34:20.668Z,52.90
2022-12-11T05:35:20.692Z,54.80
2022-12-11T05:36:20.668Z,52.50
2022-12-11T05:37:20.653Z,53.50
2022-12-11T05:38:20.624Z,56.50
2022-12-11T05:39:20.628Z,54.60
2022-12-11T05:40:21.029Z,55.60
2022-12-11T05:41:20.607Z,59.60
2022-12-11T05:42:24.125Z,57.40
2022-12-11T05:43:20.593Z,53.70
2022-12-11T05:44:20.566Z,58.80
2022-12-11T05:45:20.589Z,54.20
2022-12-11T05:46:20.609Z,55.20
2022-12-11T05:47:20.531Z,55.40
2022-12-11T05:48:20.494Z,59.50
2022-12-11T05:49:23.510Z,54.00
2022-12-11T05:50:20.475Z,53.60
2022-12-11T05:51:20.481Z,60.40
2022-12-11T05:52:20.435Z,57.10
2022-12-11T05:53:20.448Z,57.60
2022-12-11T05:54:20.437Z,56.30
2022-12-11T05:55:20.443Z,55.90
2022-12-11T05:56:20.401Z,57.90
2022-12-11T05:57:20.400Z,54.60
2022-12-11T05:58:20.379Z,54.20
2022-12-11T05:59:20.396Z,57.10
2022-12-11T06:00:20.332Z,54.90
2022-12-11T06:01:20.349Z,53.50
2022-12-11T06:02:20.394Z,56.20
2022-12-11T06:03:20.388Z,51.50
2022-12-11T06:04:20.277Z,54.50
2022-12-11T06:05:20.287Z,56.30
2022-12-11T06:06:20.251Z,54.50
2022-12-11T06:07:20.293Z,58.50
2022-12-11T06:08:20.283Z,55.10
2022-12-11T06:09:20.234Z,55.00
2022-12-11T06:10:20.233Z,56.60
2022-12-11T06:11:23.940Z,59.90
2022-12-11T06:12:20.233Z,60.40
2022-12-11T06:13:20.158Z,55.50
2022-12-11T06:14:20.188Z,53.80
2022-12-11T06:15:20.161Z,59.10
2022-12-11T06:16:20.214Z,58.00
2022-12-11T06:17:20.150Z,61.00
2022-12-11T06:18:20.142Z,64.00
2022-12-11T06:19:20.093Z,61.20
2022-12-11T06:20:20.105Z,63.40
2022-12-11T06:21:20.065Z,55.70
2022-12-11T06:22:20.076Z,55.40
2022-12-11T06:23:20.061Z,55.20
2022-12-11T06:24:20.048Z,55.30
2022-12-11T06:25:20.005Z,55.00
2022-12-11T06:26:20.068Z,52.90
2022-12-11T06:27:19.989Z,51.70
2022-12-11T06:28:19.999Z,54.30
2022-12-11T06:29:19.992Z,59.20
2022-12-11T06:30:19.998Z,57.10
2022-12-11T06:31:20.018Z,57.40
2022-12-11T06:32:19.972Z,53.90
2022-12-11T06:33:19.914Z,57.60
2022-12-11T06:34:19.982Z,55.50
2022-12-11T06:35:19.879Z,61.50
2022-12-11T06:36:19.889Z,62.40
2022-12-11T06:37:19.873Z,63.40
2022-12-11T06:38:19.882Z,66.50
2022-12-11T06:39:19.857Z,59.90
2022-12-11T06:40:19.852Z,59.10
2022-12-11T06:41:19.813Z,53.90
2022-12-11T06:42:19.852Z,55.30
2022-12-11T06:43:19.794Z,74.90
2022-12-11T06:44:19.792Z,74.10
2022-12-11T06:45:19.763Z,61.10
2022-12-11T06:46:19.832Z,95.30
2022-12-11T06:47:19.745Z,88.40
2022-12-11T06:48:19.732Z,88.60
2022-12-11T06:49:19.734Z,64.50
2022-12-11T06:50:19.705Z,74.70
2022-12-11T06:51:19.677Z,86.40
2022-12-11T06:52:19.692Z,84.20
2022-12-11T06:53:19.659Z,59.10
2022-12-11T06:54:19.691Z,51.20
2022-12-11T06:55:19.613Z,53.80
2022-12-11T06:56:19.639Z,50.10
2022-12-11T06:57:19.602Z,54.50
2022-12-11T06:58:19.619Z,54.70
2022-12-11T06:59:20.492Z,50.70
2022-12-11T07:00:19.644Z,56.10
2022-12-11T07:01:19.582Z,57.30
2022-12-11T07:02:19.589Z,58.80
2022-12-11T07:03:19.525Z,58.30
2022-12-11T07:04:19.533Z,54.20
2022-12-11T07:05:19.494Z,52.40
2022-12-11T07:06:19.531Z,76.00
2022-12-11T07:07:19.460Z,58.70
2022-12-11T07:08:19.525Z,53.50
2022-12-11T07:09:19.455Z,75.70
2022-12-11T07:10:19.456Z,53.60
2022-12-11T07:11:19.435Z,54.10
2022-12-11T07:12:19.446Z,55.40
2022-12-11T07:13:19.393Z,54.30
2022-12-11T07:14:19.398Z,52.60
2022-12-11T07:15:19.360Z,53.60
2022-12-11T07:16:19.484Z,57.60
2022-12-11T07:17:19.343Z,54.80
2022-12-11T07:18:19.349Z,53.80
2022-12-11T07:19:19.340Z,56.20
2022-12-11T07:20:19.323Z,56.20
2022-12-11T07:21:19.314Z,54.00
2022-12-11T07:22:19.297Z,55.40
2022-12-11T07:23:19.245Z,55.20
2022-12-11T07:24:19.279Z,61.10
2022-12-11T07:25:19.232Z,55.80
2022-12-11T07:26:19.274Z,58.50
2022-12-11T07:27:19.220Z,58.30
2022-12-11T07:28:19.223Z,55.30
2022-12-11T07:29:19.208Z,61.70
2022-12-11T07:30:19.199Z,55.30
2022-12-11T07:31:19.277Z,96.30
2022-12-11T07:32:19.324Z,106.40
2022-12-11T07:33:19.124Z,93.30
2022-12-11T07:34:19.162Z,64.10
2022-12-11T07:35:19.099Z,65.30
2022-12-11T07:36:19.116Z,55.50
2022-12-11T07:37:19.067Z,58.70
2022-12-11T07:38:19.099Z,57.80
2022-12-11T07:39:19.074Z,70.60
2022-12-11T07:40:19.061Z,64.50
2022-12-11T07:41:19.027Z,75.10
2022-12-11T07:42:19.035Z,76.20
2022-12-11T07:43:19.045Z,81.20
2022-12-11T07:44:19.032Z,69.80
2022-12-11T07:45:18.968Z,72.70
2022-12-11T07:46:19.007Z,80.40
2022-12-11T07:47:18.942Z,78.00
2022-12-11T07:48:19.039Z,108.50
2022-12-11T07:49:18.948Z,109.20
2022-12-11T07:50:18.950Z,104.60
2022-12-11T07:51:18.899Z,66.20
2022-12-11T07:52:18.905Z,140.80
2022-12-11T07:53:18.888Z,137.70
2022-12-11T07:54:18.901Z,110.30
2022-12-11T07:55:18.869Z,102.60
2022-12-11T07:56:18.857Z,148.40
2022-12-11T07:57:18.817Z,187.00
2022-12-11T07:58:18.822Z,182.10
2022-12-11T07:59:18.814Z,127.00
2022-12-11T08:00:18.807Z,170.10
2022-12-11T08:01:18.847Z,100.70
2022-12-11T08:02:18.864Z,79.60
2022-12-11T08:03:18.726Z,80.00
2022-12-11T08:04:18.758Z,85.20
2022-12-11T08:05:18.729Z,124.80
2022-12-11T08:06:18.762Z,141.50
2022-12-11T08:07:18.690Z,134.50
2022-12-11T08:08:18.729Z,122.30
2022-12-11T08:09:21.326Z,98.50
2022-12-11T08:10:18.680Z,89.40
2022-12-11T08:11:18.650Z,86.00
2022-12-11T08:12:18.657Z,76.10
2022-12-11T08:13:18.615Z,67.70
2022-12-11T08:14:18.631Z,64.50
2022-12-11T08:15:18.611Z,67.60
2022-12-11T08:16:18.651Z,66.30
2022-12-11T08:17:18.558Z,62.30
2022-12-11T08:18:18.620Z,61.80
2022-12-11T08:19:18.529Z,58.60
2022-12-11T08:20:18.558Z,59.60
2022-12-11T08:21:18.508Z,60.30
2022-12-11T08:22:18.528Z,59.80
2022-12-11T08:23:18.477Z,62.20
2022-12-11T08:24:18.494Z,63.60
2022-12-11T08:25:18.463Z,62.30
2022-12-11T08:26:18.468Z,58.30
2022-12-11T08:27:18.451Z,62.70
2022-12-11T08:28:18.433Z,62.60
2022-12-11T08:29:18.441Z,59.10
2022-12-11T08:30:18.416Z,67.10
2022-12-11T08:31:18.417Z,61.90
2022-12-11T08:32:18.418Z,60.00
2022-12-11T08:33:18.350Z,59.50
2022-12-11T08:34:18.354Z,56.70
2022-12-11T08:35:18.317Z,58.30
2022-12-11T08:36:18.345Z,62.40
2022-12-11T08:37:18.331Z,63.20
2022-12-11T08:38:23.712Z,58.80
2022-12-11T08:39:18.268Z,56.60
2022-12-11T08:40:18.286Z,54.70
2022-12-11T08:41:18.247Z,61.50
2022-12-11T08:42:18.271Z,54.80
2022-12-11T08:43:18.223Z,54.40
2022-12-11T08:44:18.263Z,56.00
2022-12-11T08:45:18.209Z,56.20
2022-12-11T08:46:18.235Z,59.10
2022-12-11T08:47:18.186Z,57.50
2022-12-11T08:48:18.170Z,59.80
2022-12-11T08:49:18.156Z,54.70
2022-12-11T08:50:18.163Z,58.30
2022-12-11T08:51:18.112Z,62.60
2022-12-11T08:52:18.126Z,62.30
2022-12-11T08:53:18.089Z,56.20
2022-12-11T08:54:18.093Z,58.80
2022-12-11T08:55:18.100Z,57.50
2022-12-11T08:56:18.099Z,56.80
2022-12-11T08:57:18.032Z,57.40
2022-12-11T08:58:18.074Z,59.20
2022-12-11T08:59:17.994Z,55.60
2022-12-11T09:00:18.038Z,56.60
2022-12-11T09:01:18.111Z,57.30
2022-12-11T09:02:18.056Z,56.10
2022-12-11T09:03:17.985Z,56.80
2022-12-11T09:04:17.967Z,55.30
2022-12-11T09:05:18.019Z,58.20
2022-12-11T09:06:17.952Z,55.70
2022-12-11T09:07:17.914Z,53.80
2022-12-11T09:08:17.998Z,56.40
2022-12-11T09:09:17.869Z,55.20
2022-12-11T09:10:17.940Z,57.40
2022-12-11T09:11:17.904Z,53.40
2022-12-11T09:12:17.851Z,58.20
2022-12-11T09:13:17.831Z,56.60
2022-12-11T09:14:17.831Z,58.00
2022-12-11T09:15:17.814Z,59.80
2022-12-11T09:16:17.878Z,59.40
2022-12-11T09:17:17.860Z,62.70
2022-12-11T09:18:17.800Z,57.30
2022-12-11T09:19:17.762Z,59.30
2022-12-11T09:20:17.773Z,56.60
2022-12-11T09:21:17.734Z,59.10
2022-12-11T09:22:17.731Z,58.00
2022-12-11T09:23:17.731Z,55.20
2022-12-11T09:24:17.744Z,58.20
2022-12-11T09:25:17.655Z,60.00
2022-12-11T09:26:17.675Z,58.10
2022-12-11T09:27:17.699Z,60.90
2022-12-11T09:28:17.675Z,62.30
2022-12-11T09:29:17.624Z,57.70
2022-12-11T09:30:17.630Z,61.50
2022-12-11T09:31:17.736Z,61.90
2022-12-11T09:32:17.627Z,57.60
2022-12-11T09:33:17.571Z,58.30
2022-12-11T09:34:17.598Z,61.70
2022-12-11T09:35:17.543Z,63.70
2022-12-11T09:36:17.541Z,62.50
2022-12-11T09:37:17.526Z,60.20
2022-12-11T09:38:17.527Z,63.40
2022-12-11T09:39:17.510Z,65.40
2022-12-11T09:40:17.530Z,64.20
2022-12-11T09:41:17.453Z,65.20
2022-12-11T09:42:17.474Z,69.10
2022-12-11T09:43:17.434Z,74.60
2022-12-11T09:44:17.487Z,71.00
2022-12-11T09:45:17.410Z,73.30
2022-12-11T09:46:17.492Z,73.10
2022-12-11T09:47:17.385Z,64.40
2022-12-11T09:48:17.392Z,67.80
2022-12-11T09:49:17.395Z,58.80
2022-12-11T09:50:17.389Z,68.20
2022-12-11T09:51:17.314Z,63.60
2022-12-11T09:52:17.348Z,70.10
2022-12-11T09:53:17.344Z,96.60
2022-12-11T09:54:17.320Z,77.10
2022-12-11T09:55:17.298Z,75.40
2022-12-11T09:56:17.294Z,80.30
2022-12-11T09:57:17.252Z,73.80
2022-12-11T09:58:17.254Z,66.70
2022-12-11T09:59:17.240Z,63.50
2022-12-11T10:00:17.258Z,75.70
2022-12-11T10:01:17.223Z,80.70
2022-12-11T10:02:17.304Z,91.00
2022-12-11T10:03:17.194Z,145.60
2022-12-11T10:04:17.202Z,91.70
2022-12-11T10:05:17.157Z,89.40
2022-12-11T10:06:17.197Z,79.50
2022-12-11T10:07:17.107Z,78.80
2022-12-11T10:08:17.179Z,80.70
2022-12-11T10:09:17.090Z,79.50
2022-12-11T10:10:17.097Z,81.50
2022-12-11T10:11:17.058Z,77.70
2022-12-11T10:12:17.145Z,78.00
2022-12-11T10:13:17.022Z,84.50
2022-12-11T10:14:17.065Z,67.10
2022-12-11T10:15:17.021Z,70.40
2022-12-11T10:16:17.082Z,73.40
2022-12-11T10:17:16.984Z,68.60
2022-12-11T10:18:17.003Z,67.20
2022-12-11T10:19:16.968Z,67.90
2022-12-11T10:20:17.015Z,71.60
2022-12-11T10:21:16.937Z,69.30
2022-12-11T10:22:16.969Z,71.50
2022-12-11T10:23:16.938Z,64.00
2022-12-11T10:24:34.637Z,72.30
2022-12-11T10:25:16.928Z,68.10
2022-12-11T10:26:16.881Z,77.90
2022-12-11T10:27:16.898Z,72.30
2022-12-11T10:28:16.840Z,74.50
2022-12-11T10:29:16.874Z,70.90
2022-12-11T10:30:17.027Z,74.60
2022-12-11T10:31:16.929Z,65.50
2022-12-11T10:32:16.785Z,74.00
2022-12-11T10:33:16.846Z,75.40
2022-12-11T10:34:16.796Z,77.40
2022-12-11T10:35:16.782Z,73.70
2022-12-11T10:36:16.744Z,71.60
2022-12-11T10:37:16.754Z,80.40
2022-12-11T10:38:16.725Z,72.90
2022-12-11T10:39:16.755Z,79.50
2022-12-11T10:40:16.770Z,75.80
2022-12-11T10:41:16.716Z,80.40
2022-12-11T10:42:16.650Z,84.70
2022-12-11T10:43:16.664Z,81.40
2022-12-11T10:44:16.687Z,82.10
2022-12-11T10:45:16.650Z,86.10
2022-12-11T10:46:16.682Z,84.30
2022-12-11T10:47:16.639Z,86.60
2022-12-11T10:48:16.586Z,76.50
2022-12-11T10:49:16.632Z,75.90
2022-12-11T10:50:16.558Z,79.00
2022-12-11T10:51:16.575Z,72.30
2022-12-11T10:52:16.525Z,71.50
2022-12-11T10:53:16.535Z,66.60
2022-12-11T10:54:16.568Z,69.40
2022-12-11T10:55:16.533Z,77.70
2022-12-11T10:56:16.498Z,78.80
2022-12-11T10:57:16.471Z,71.10
2022-12-11T10:58:16.442Z,80.50
2022-12-11T10:59:21.143Z,74.30
2022-12-11T11:00:16.446Z,64.70
2022-12-11T11:01:16.472Z,68.30
2022-12-11T11:02:16.474Z,67.00
2022-12-11T11:03:16.421Z,67.70
2022-12-11T11:04:16.479Z,69.90
2022-12-11T11:05:16.414Z,71.30
2022-12-11T11:06:16.377Z,72.50
2022-12-11T11:07:16.347Z,70.30
2022-12-11T11:08:16.378Z,69.00
2022-12-11T11:09:16.383Z,67.00
2022-12-11T11:10:16.446Z,70.30
2022-12-11T11:11:16.325Z,63.70
2022-12-11T11:12:16.290Z,71.70
2022-12-11T11:13:16.267Z,71.30
2022-12-11T11:14:16.278Z,72.20
2022-12-11T11:15:16.274Z,72.60
2022-12-11T11:16:16.252Z,73.40
2022-12-11T11:17:16.227Z,65.60
2022-12-11T11:18:16.193Z,66.50
2022-12-11T11:19:16.544Z,67.70
2022-12-11T11:20:16.163Z,60.30
2022-12-11T11:21:16.163Z,60.40
2022-12-11T11:22:16.164Z,61.40
2022-12-11T11:23:16.140Z,66.20
2022-12-11T11:24:16.155Z,72.50
2022-12-11T11:25:16.156Z,72.90
2022-12-11T11:26:16.139Z,77.20
2022-12-11T11:27:16.113Z,74.90
2022-12-11T11:28:16.072Z,70.90
2022-12-11T11:29:16.083Z,60.10
2022-12-11T11:30:16.034Z,66.10
2022-12-11T11:31:16.105Z,64.80
2022-12-11T11:32:16.005Z,65.60
2022-12-11T11:33:16.051Z,71.30
2022-12-11T11:34:15.983Z,73.00
2022-12-11T11:35:15.991Z,68.20
2022-12-11T11:36:15.977Z,69.10
2022-12-11T11:37:16.007Z,62.20
2022-12-11T11:38:15.940Z,63.60
2022-12-11T11:39:15.957Z,66.50
2022-12-11T11:40:15.887Z,64.70
2022-12-11T11:41:15.908Z,61.30
2022-12-11T11:42:15.880Z,58.40
2022-12-11T11:43:15.910Z,59.50
2022-12-11T11:44:15.860Z,58.30
2022-12-11T11:45:15.911Z,60.20
2022-12-11T11:46:15.832Z,62.90
2022-12-11T11:47:15.821Z,57.60
2022-12-11T11:48:15.801Z,61.20
2022-12-11T11:49:15.821Z,62.60
2022-12-11T11:50:15.810Z,61.30
2022-12-11T11:51:15.803Z,62.60
2022-12-11T11:52:15.732Z,63.20
2022-12-11T11:53:15.749Z,63.50
2022-12-11T11:54:15.707Z,61.00
2022-12-11T11:55:20.283Z,63.30
2022-12-11T11:56:15.712Z,61.40
2022-12-11T11:57:15.713Z,56.20
2022-12-11T11:58:15.689Z,54.70
2022-12-11T11:59:15.671Z,54.60
2022-12-11T12:00:15.657Z,54.90
2022-12-11T12:01:15.648Z,52.80
2022-12-11T12:02:15.650Z,57.90
2022-12-11T12:03:15.622Z,57.20
2022-12-11T12:04:15.609Z,61.10
2022-12-11T12:05:15.610Z,58.10
2022-12-11T12:06:15.574Z,59.60
2022-12-11T12:07:15.575Z,66.90
2022-12-11T12:08:15.591Z,58.50
2022-12-11T12:09:15.553Z,51.90
2022-12-11T12:10:15.513Z,55.40
2022-12-11T12:11:15.506Z,57.80
2022-12-11T12:12:20.934Z,61.20
2022-12-11T12:13:47.647Z,60.30
2022-12-11T12:14:43.522Z,56.10
2022-12-11T12:15:15.465Z,53.90
2022-12-11T12:16:50.454Z,57.90
2022-12-11T12:17:15.482Z,54.40
2022-12-11T12:18:15.423Z,55.50
2022-12-11T12:19:15.410Z,55.90
2022-12-11T12:20:15.369Z,56.20
2022-12-11T12:21:15.383Z,60.40
2022-12-11T12:22:15.370Z,54.30
2022-12-11T12:23:15.415Z,58.10
2022-12-11T12:24:15.331Z,53.30
2022-12-11T12:25:15.344Z,50.70
2022-12-11T12:26:15.299Z,50.20
2022-12-11T12:27:50.078Z,50.50
2022-12-11T12:28:15.327Z,50.50
2022-12-11T12:29:15.311Z,55.60
2022-12-11T12:30:21.847Z,54.40
2022-12-11T12:31:15.304Z,53.60
2022-12-11T12:32:15.234Z,54.40
2022-12-11T12:33:15.252Z,47.90
2022-12-11T12:34:15.191Z,50.80
2022-12-11T12:35:15.225Z,50.60
2022-12-11T12:36:15.185Z,53.80
2022-12-11T12:37:15.187Z,53.00
2022-12-11T12:38:15.148Z,52.60
2022-12-11T12:39:15.156Z,49.00
2022-12-11T12:40:15.151Z,50.30
2022-12-11T12:41:15.120Z,51.50
2022-12-11T12:42:15.133Z,48.80
2022-12-11T12:43:15.136Z,52.60
2022-12-11T12:44:15.119Z,45.50
2022-12-11T12:45:15.216Z,51.70
2022-12-11T12:46:15.055Z,57.20
2022-12-11T12:47:15.070Z,55.80
2022-12-11T12:48:15.022Z,56.40
2022-12-11T12:49:15.069Z,52.60
2022-12-11T12:50:15.003Z,51.50
2022-12-11T12:51:15.056Z,51.40
2022-12-11T12:52:14.970Z,50.60